sensor_id;sensor_type;location;lat;lon;timestamp;temperature;humidity
578;DHT22;275;48.492;9.214;2023-01-29T00:01:46;3.70;40.20
578;DHT22;275;48.492;9.214;2023-01-29T00:04:13;3.50;40.50
578;DHT22;275;48.492;9.214;2023-01-29T00:06:39;3.40;40.40
578;DHT22;275;48.492;9.214;2023-01-29T00:09:06;3.40;40.70
578;DHT22;275;48.492;9.214;2023-01-29T00:11:34;3.40;40.40
578;DHT22;275;48.492;9.214;2023-01-29T00:14:01;3.30;40.90
578;DHT22;275;48.492;9.214;2023-01-29T00:16:27;3.10;41.50
578;DHT22;275;48.492;9.214;2023-01-29T00:18:56;3.10;41.40
578;DHT22;275;48.492;9.214;2023-01-29T00:21:23;3.10;41.20
578;DHT22;275;48.492;9.214;2023-01-29T00:23:50;2.90;41.60
578;DHT22;275;48.492;9.214;2023-01-29T00:26:17;3.40;41.00
578;DHT22;275;48.492;9.214;2023-01-29T00:28:43;4.00;39.40
578;DHT22;275;48.492;9.214;2023-01-29T00:31:12;4.30;38.20
578;DHT22;275;48.492;9.214;2023-01-29T00:33:39;4.10;38.40
578;DHT22;275;48.492;9.214;2023-01-29T00:36:09;3.90;39.20
578;DHT22;275;48.492;9.214;2023-01-29T00:38:37;4.30;38.30
578;DHT22;275;48.492;9.214;2023-01-29T00:41:05;4.50;37.60
578;DHT22;275;48.492;9.214;2023-01-29T00:43:49;4.30;38.50
578;DHT22;275;48.492;9.214;2023-01-29T00:46:34;4.00;38.60
578;DHT22;275;48.492;9.214;2023-01-29T00:49:01;3.50;40.20
578;DHT22;275;48.492;9.214;2023-01-29T00:51:29;3.90;39.30
578;DHT22;275;48.492;9.214;2023-01-29T00:53:56;4.10;38.30
578;DHT22;275;48.492;9.214;2023-01-29T00:56:23;4.10;38.00
578;DHT22;275;48.492;9.214;2023-01-29T00:58:50;4.10;38.40
578;DHT22;275;48.492;9.214;2023-01-29T01:01:17;4.20;38.30
578;DHT22;275;48.492;9.214;2023-01-29T01:04:04;3.50;39.50
578;DHT22;275;48.492;9.214;2023-01-29T01:06:32;3.10;40.90
578;DHT22;275;48.492;9.214;2023-01-29T01:08:59;3.20;40.70
578;DHT22;275;48.492;9.214;2023-01-29T01:11:43;3.30;40.20
578;DHT22;275;48.492;9.214;2023-01-29T01:14:10;3.50;40.00
578;DHT22;275;48.492;9.214;2023-01-29T01:16:37;2.90;41.10
578;DHT22;275;48.492;9.214;2023-01-29T01:19:04;2.80;42.10
578;DHT22;275;48.492;9.214;2023-01-29T01:21:32;3.60;40.10
578;DHT22;275;48.492;9.214;2023-01-29T01:23:59;3.30;40.30
578;DHT22;275;48.492;9.214;2023-01-29T01:26:26;3.20;40.50
578;DHT22;275;48.492;9.214;2023-01-29T01:28:53;3.50;39.80
578;DHT22;275;48.492;9.214;2023-01-29T01:31:20;4.00;38.90
578;DHT22;275;48.492;9.214;2023-01-29T01:33:47;4.20;38.00
578;DHT22;275;48.492;9.214;2023-01-29T01:36:16;4.50;36.80
578;DHT22;275;48.492;9.214;2023-01-29T01:38:44;4.30;37.50
578;DHT22;275;48.492;9.214;2023-01-29T01:41:12;4.20;37.80
578;DHT22;275;48.492;9.214;2023-01-29T01:43:51;4.00;38.30
578;DHT22;275;48.492;9.214;2023-01-29T01:46:18;4.30;37.80
578;DHT22;275;48.492;9.214;2023-01-29T01:48:49;4.40;37.40
578;DHT22;275;48.492;9.214;2023-01-29T01:51:17;4.50;37.10
578;DHT22;275;48.492;9.214;2023-01-29T01:53:49;4.40;37.10
578;DHT22;275;48.492;9.214;2023-01-29T01:56:22;3.90;38.40
578;DHT22;275;48.492;9.214;2023-01-29T01:58:52;3.30;40.00
578;DHT22;275;48.492;9.214;2023-01-29T02:01:21;3.70;38.30
578;DHT22;275;48.492;9.214;2023-01-29T02:03:55;3.50;39.50
578;DHT22;275;48.492;9.214;2023-01-29T02:06:40;3.40;39.70
578;DHT22;275;48.492;9.214;2023-01-29T02:09:30;3.80;39.10
578;DHT22;275;48.492;9.214;2023-01-29T02:12:00;4.10;38.30
578;DHT22;275;48.492;9.214;2023-01-29T02:14:27;4.40;37.50
578;DHT22;275;48.492;9.214;2023-01-29T02:16:55;4.50;36.80
578;DHT22;275;48.492;9.214;2023-01-29T02:19:33;4.40;37.00
578;DHT22;275;48.492;9.214;2023-01-29T02:25:34;4.40;37.30
578;DHT22;275;48.492;9.214;2023-01-29T02:28:13;4.00;38.20
578;DHT22;275;48.492;9.214;2023-01-29T02:30:44;3.90;38.60
578;DHT22;275;48.492;9.214;2023-01-29T02:33:23;3.80;38.70
578;DHT22;275;48.492;9.214;2023-01-29T02:35:56;4.30;37.70
578;DHT22;275;48.492;9.214;2023-01-29T02:38:29;4.40;37.00
578;DHT22;275;48.492;9.214;2023-01-29T02:41:00;4.30;36.20
578;DHT22;275;48.492;9.214;2023-01-29T02:43:32;3.70;37.90
578;DHT22;275;48.492;9.214;2023-01-29T02:46:10;3.80;38.20
578;DHT22;275;48.492;9.214;2023-01-29T02:48:40;3.90;38.20
578;DHT22;275;48.492;9.214;2023-01-29T02:51:16;4.30;37.20
578;DHT22;275;48.492;9.214;2023-01-29T02:53:50;3.60;39.00
578;DHT22;275;48.492;9.214;2023-01-29T02:56:21;3.40;39.40
578;DHT22;275;48.492;9.214;2023-01-29T02:58:56;3.30;39.60
578;DHT22;275;48.492;9.214;2023-01-29T03:01:29;3.40;39.40
578;DHT22;275;48.492;9.214;2023-01-29T03:04:01;3.60;38.80
578;DHT22;275;48.492;9.214;2023-01-29T03:06:31;4.30;37.70
578;DHT22;275;48.492;9.214;2023-01-29T03:09:04;4.90;35.70
578;DHT22;275;48.492;9.214;2023-01-29T03:11:35;5.10;35.10
578;DHT22;275;48.492;9.214;2023-01-29T03:14:08;5.30;34.60
578;DHT22;275;48.492;9.214;2023-01-29T03:16:40;5.10;34.40
578;DHT22;275;48.492;9.214;2023-01-29T03:19:11;4.70;36.10
578;DHT22;275;48.492;9.214;2023-01-29T03:21:43;4.30;36.50
578;DHT22;275;48.492;9.214;2023-01-29T03:24:28;4.20;37.30
578;DHT22;275;48.492;9.214;2023-01-29T03:27:15;4.30;36.80
578;DHT22;275;48.492;9.214;2023-01-29T03:30:04;4.10;36.60
578;DHT22;275;48.492;9.214;2023-01-29T03:32:51;4.50;36.10
578;DHT22;275;48.492;9.214;2023-01-29T03:35:21;4.60;36.00
578;DHT22;275;48.492;9.214;2023-01-29T03:37:58;4.40;35.90
578;DHT22;275;48.492;9.214;2023-01-29T03:40:27;3.90;37.10
578;DHT22;275;48.492;9.214;2023-01-29T03:43:04;3.80;37.50
578;DHT22;275;48.492;9.214;2023-01-29T03:45:38;3.50;38.60
578;DHT22;275;48.492;9.214;2023-01-29T03:48:12;3.40;38.80
578;DHT22;275;48.492;9.214;2023-01-29T03:50:48;3.50;38.50
578;DHT22;275;48.492;9.214;2023-01-29T03:53:23;3.60;38.50
578;DHT22;275;48.492;9.214;2023-01-29T03:55:56;3.80;37.90
578;DHT22;275;48.492;9.214;2023-01-29T03:58:29;3.90;37.60
578;DHT22;275;48.492;9.214;2023-01-29T04:01:02;3.80;37.70
578;DHT22;275;48.492;9.214;2023-01-29T04:03:33;4.00;37.60
578;DHT22;275;48.492;9.214;2023-01-29T04:06:07;4.30;35.80
578;DHT22;275;48.492;9.214;2023-01-29T04:08:39;3.70;36.30
578;DHT22;275;48.492;9.214;2023-01-29T04:11:18;3.20;37.00
578;DHT22;275;48.492;9.214;2023-01-29T04:13:46;3.30;36.30
578;DHT22;275;48.492;9.214;2023-01-29T04:16:18;3.50;35.40
578;DHT22;275;48.492;9.214;2023-01-29T04:18:47;3.90;34.60
578;DHT22;275;48.492;9.214;2023-01-29T04:21:15;4.00;34.60
578;DHT22;275;48.492;9.214;2023-01-29T04:23:42;4.20;33.80
578;DHT22;275;48.492;9.214;2023-01-29T04:26:22;4.00;33.30
578;DHT22;275;48.492;9.214;2023-01-29T04:28:58;3.50;33.30
578;DHT22;275;48.492;9.214;2023-01-29T04:31:33;3.20;34.30
578;DHT22;275;48.492;9.214;2023-01-29T04:34:13;2.90;35.10
578;DHT22;275;48.492;9.214;2023-01-29T04:36:47;3.50;33.70
578;DHT22;275;48.492;9.214;2023-01-29T04:39:21;3.90;33.00
578;DHT22;275;48.492;9.214;2023-01-29T04:41:53;4.20;32.00
578;DHT22;275;48.492;9.214;2023-01-29T04:44:23;3.80;32.50
578;DHT22;275;48.492;9.214;2023-01-29T04:47:04;4.20;31.80
578;DHT22;275;48.492;9.214;2023-01-29T04:49:34;4.30;31.50
578;DHT22;275;48.492;9.214;2023-01-29T04:52:11;3.90;32.00
578;DHT22;275;48.492;9.214;2023-01-29T04:54:52;3.40;33.70
578;DHT22;275;48.492;9.214;2023-01-29T04:57:23;3.20;34.50
578;DHT22;275;48.492;9.214;2023-01-29T04:59:56;3.30;34.20
578;DHT22;275;48.492;9.214;2023-01-29T05:02:26;3.50;32.90
578;DHT22;275;48.492;9.214;2023-01-29T05:04:53;3.80;32.50
578;DHT22;275;48.492;9.214;2023-01-29T05:07:22;4.40;31.10
578;DHT22;275;48.492;9.214;2023-01-29T05:09:50;5.00;30.00
578;DHT22;275;48.492;9.214;2023-01-29T05:12:17;4.70;30.00
578;DHT22;275;48.492;9.214;2023-01-29T05:14:45;4.70;30.60
578;DHT22;275;48.492;9.214;2023-01-29T05:17:15;3.70;32.00
578;DHT22;275;48.492;9.214;2023-01-29T05:19:45;2.90;34.10
578;DHT22;275;48.492;9.214;2023-01-29T05:22:15;2.90;35.60
578;DHT22;275;48.492;9.214;2023-01-29T05:24:42;2.90;36.10
578;DHT22;275;48.492;9.214;2023-01-29T05:27:15;3.30;35.30
578;DHT22;275;48.492;9.214;2023-01-29T05:29:59;3.80;35.10
578;DHT22;275;48.492;9.214;2023-01-29T05:32:26;4.10;34.60
578;DHT22;275;48.492;9.214;2023-01-29T05:34:54;3.70;35.80
578;DHT22;275;48.492;9.214;2023-01-29T05:37:21;3.20;37.80
578;DHT22;275;48.492;9.214;2023-01-29T05:39:48;3.10;37.10
578;DHT22;275;48.492;9.214;2023-01-29T05:42:15;3.50;36.50
578;DHT22;275;48.492;9.214;2023-01-29T05:44:41;3.90;35.70
578;DHT22;275;48.492;9.214;2023-01-29T05:47:08;3.70;34.40
578;DHT22;275;48.492;9.214;2023-01-29T05:49:35;3.90;34.30
578;DHT22;275;48.492;9.214;2023-01-29T05:52:03;3.90;34.40
578;DHT22;275;48.492;9.214;2023-01-29T05:54:30;3.90;34.40
578;DHT22;275;48.492;9.214;2023-01-29T05:56:57;3.60;33.90
578;DHT22;275;48.492;9.214;2023-01-29T05:59:24;3.60;33.90
578;DHT22;275;48.492;9.214;2023-01-29T06:01:51;3.60;33.80
578;DHT22;275;48.492;9.214;2023-01-29T06:04:17;3.70;33.10
578;DHT22;275;48.492;9.214;2023-01-29T06:06:44;3.40;34.00
578;DHT22;275;48.492;9.214;2023-01-29T06:09:12;3.90;33.00
578;DHT22;275;48.492;9.214;2023-01-29T06:11:39;4.50;31.50
578;DHT22;275;48.492;9.214;2023-01-29T06:14:06;4.60;31.10
578;DHT22;275;48.492;9.214;2023-01-29T06:16:33;5.00;30.00
578;DHT22;275;48.492;9.214;2023-01-29T06:19:00;4.90;29.60
578;DHT22;275;48.492;9.214;2023-01-29T06:21:27;4.40;30.00
578;DHT22;275;48.492;9.214;2023-01-29T06:23:53;4.10;31.20
578;DHT22;275;48.492;9.214;2023-01-29T06:26:22;3.90;31.00
578;DHT22;275;48.492;9.214;2023-01-29T06:28:49;3.90;31.50
578;DHT22;275;48.492;9.214;2023-01-29T06:31:16;4.50;30.40
578;DHT22;275;48.492;9.214;2023-01-29T06:33:43;4.60;30.00
578;DHT22;275;48.492;9.214;2023-01-29T06:36:10;4.20;30.10
578;DHT22;275;48.492;9.214;2023-01-29T06:38:37;3.90;31.20
578;DHT22;275;48.492;9.214;2023-01-29T06:41:08;3.80;32.00
578;DHT22;275;48.492;9.214;2023-01-29T06:43:36;4.00;31.60
578;DHT22;275;48.492;9.214;2023-01-29T06:46:06;4.50;30.30
578;DHT22;275;48.492;9.214;2023-01-29T06:48:33;4.70;29.70
578;DHT22;275;48.492;9.214;2023-01-29T06:51:01;4.90;29.30
578;DHT22;275;48.492;9.214;2023-01-29T06:53:28;4.80;29.50
578;DHT22;275;48.492;9.214;2023-01-29T06:55:55;4.90;29.40
578;DHT22;275;48.492;9.214;2023-01-29T06:58:22;4.50;29.30
578;DHT22;275;48.492;9.214;2023-01-29T07:00:50;4.00;30.50
578;DHT22;275;48.492;9.214;2023-01-29T07:03:17;3.70;31.50
578;DHT22;275;48.492;9.214;2023-01-29T07:05:49;4.10;30.50
578;DHT22;275;48.492;9.214;2023-01-29T07:08:16;3.90;30.70
578;DHT22;275;48.492;9.214;2023-01-29T07:10:43;3.90;31.00
578;DHT22;275;48.492;9.214;2023-01-29T07:13:10;4.10;30.70
578;DHT22;275;48.492;9.214;2023-01-29T07:15:37;4.40;30.00
578;DHT22;275;48.492;9.214;2023-01-29T07:18:05;3.80;30.50
578;DHT22;275;48.492;9.214;2023-01-29T07:20:37;3.50;31.90
578;DHT22;275;48.492;9.214;2023-01-29T07:23:04;3.00;32.90
578;DHT22;275;48.492;9.214;2023-01-29T07:25:32;3.30;32.80
578;DHT22;275;48.492;9.214;2023-01-29T07:27:59;4.00;31.40
578;DHT22;275;48.492;9.214;2023-01-29T07:30:26;4.20;30.70
578;DHT22;275;48.492;9.214;2023-01-29T07:32:53;4.50;30.30
578;DHT22;275;48.492;9.214;2023-01-29T07:35:21;4.40;30.30
578;DHT22;275;48.492;9.214;2023-01-29T07:37:48;4.60;30.10
578;DHT22;275;48.492;9.214;2023-01-29T07:40:15;4.80;29.60
578;DHT22;275;48.492;9.214;2023-01-29T07:42:42;4.90;29.60
578;DHT22;275;48.492;9.214;2023-01-29T07:45:10;4.80;29.90
578;DHT22;275;48.492;9.214;2023-01-29T07:47:37;4.40;30.20
578;DHT22;275;48.492;9.214;2023-01-29T07:50:05;3.60;31.10
578;DHT22;275;48.492;9.214;2023-01-29T07:52:33;2.90;33.60
578;DHT22;275;48.492;9.214;2023-01-29T07:55:00;3.30;32.80
578;DHT22;275;48.492;9.214;2023-01-29T07:57:27;3.60;31.90
578;DHT22;275;48.492;9.214;2023-01-29T07:59:55;3.10;32.40
578;DHT22;275;48.492;9.214;2023-01-29T08:02:22;2.90;33.20
578;DHT22;275;48.492;9.214;2023-01-29T08:04:49;3.00;32.50
578;DHT22;275;48.492;9.214;2023-01-29T08:07:15;2.60;33.90
578;DHT22;275;48.492;9.214;2023-01-29T08:09:44;3.00;32.80
578;DHT22;275;48.492;9.214;2023-01-29T08:12:10;3.00;32.80
578;DHT22;275;48.492;9.214;2023-01-29T08:14:37;3.90;31.30
578;DHT22;275;48.492;9.214;2023-01-29T08:17:04;4.60;29.70
578;DHT22;275;48.492;9.214;2023-01-29T08:19:31;4.90;29.40
578;DHT22;275;48.492;9.214;2023-01-29T08:21:58;5.20;28.90
578;DHT22;275;48.492;9.214;2023-01-29T08:24:24;5.30;28.30
578;DHT22;275;48.492;9.214;2023-01-29T08:26:53;5.40;28.20
578;DHT22;275;48.492;9.214;2023-01-29T08:29:19;5.60;27.90
578;DHT22;275;48.492;9.214;2023-01-29T08:31:47;5.40;28.30
578;DHT22;275;48.492;9.214;2023-01-29T08:34:13;5.50;28.20
578;DHT22;275;48.492;9.214;2023-01-29T08:36:40;4.50;29.60
578;DHT22;275;48.492;9.214;2023-01-29T08:39:07;4.30;30.50
578;DHT22;275;48.492;9.214;2023-01-29T08:41:34;3.40;31.80
578;DHT22;275;48.492;9.214;2023-01-29T08:44:02;2.60;33.50
578;DHT22;275;48.492;9.214;2023-01-29T08:46:30;3.00;33.40
578;DHT22;275;48.492;9.214;2023-01-29T08:48:56;3.90;31.90
578;DHT22;275;48.492;9.214;2023-01-29T08:51:24;3.90;30.90
578;DHT22;275;48.492;9.214;2023-01-29T08:53:51;3.70;31.50
578;DHT22;275;48.492;9.214;2023-01-29T08:56:18;3.90;31.30
578;DHT22;275;48.492;9.214;2023-01-29T08:58:45;4.50;29.90
578;DHT22;275;48.492;9.214;2023-01-29T09:01:13;5.10;29.40
578;DHT22;275;48.492;9.214;2023-01-29T09:03:40;5.30;28.60
578;DHT22;275;48.492;9.214;2023-01-29T09:06:10;5.40;28.30
578;DHT22;275;48.492;9.214;2023-01-29T09:08:37;5.10;28.70
578;DHT22;275;48.492;9.214;2023-01-29T09:11:04;5.10;29.00
578;DHT22;275;48.492;9.214;2023-01-29T09:13:31;5.20;28.80
578;DHT22;275;48.492;9.214;2023-01-29T09:15:58;5.60;28.80
578;DHT22;275;48.492;9.214;2023-01-29T09:18:28;5.00;28.70
578;DHT22;275;48.492;9.214;2023-01-29T09:20:55;3.80;31.00
578;DHT22;275;48.492;9.214;2023-01-29T09:23:22;3.30;31.90
578;DHT22;275;48.492;9.214;2023-01-29T09:25:49;3.40;32.20
578;DHT22;275;48.492;9.214;2023-01-29T09:28:16;3.60;31.30
578;DHT22;275;48.492;9.214;2023-01-29T09:30:43;3.90;30.80
578;DHT22;275;48.492;9.214;2023-01-29T09:33:10;4.00;31.00
578;DHT22;275;48.492;9.214;2023-01-29T09:35:41;3.80;31.30
578;DHT22;275;48.492;9.214;2023-01-29T09:38:08;3.80;31.60
578;DHT22;275;48.492;9.214;2023-01-29T09:40:40;4.20;30.50
578;DHT22;275;48.492;9.214;2023-01-29T09:43:16;4.60;29.90
578;DHT22;275;48.492;9.214;2023-01-29T09:45:51;4.80;29.10
578;DHT22;275;48.492;9.214;2023-01-29T09:48:20;4.60;29.60
578;DHT22;275;48.492;9.214;2023-01-29T09:50:52;5.20;28.80
578;DHT22;275;48.492;9.214;2023-01-29T09:53:24;5.70;27.80
578;DHT22;275;48.492;9.214;2023-01-29T09:55:58;6.00;27.10
578;DHT22;275;48.492;9.214;2023-01-29T09:58:29;6.10;27.00
578;DHT22;275;48.492;9.214;2023-01-29T10:01:01;6.20;26.80
578;DHT22;275;48.492;9.214;2023-01-29T10:03:49;6.30;26.60
578;DHT22;275;48.492;9.214;2023-01-29T10:06:38;6.50;26.80
578;DHT22;275;48.492;9.214;2023-01-29T10:09:28;6.70;26.60
578;DHT22;275;48.492;9.214;2023-01-29T10:12:08;5.10;28.20
578;DHT22;275;48.492;9.214;2023-01-29T10:14:43;4.20;29.60
578;DHT22;275;48.492;9.214;2023-01-29T10:17:25;4.20;29.60
578;DHT22;275;48.492;9.214;2023-01-29T10:20:09;4.50;29.90
578;DHT22;275;48.492;9.214;2023-01-29T10:22:58;5.20;28.10
578;DHT22;275;48.492;9.214;2023-01-29T10:25:26;5.10;28.30
578;DHT22;275;48.492;9.214;2023-01-29T10:27:56;4.20;29.90
578;DHT22;275;48.492;9.214;2023-01-29T10:30:30;4.70;29.10
578;DHT22;275;48.492;9.214;2023-01-29T10:33:14;4.60;29.40
578;DHT22;275;48.492;9.214;2023-01-29T10:35:45;4.60;28.80
578;DHT22;275;48.492;9.214;2023-01-29T10:38:23;4.70;29.00
578;DHT22;275;48.492;9.214;2023-01-29T10:40:59;5.70;28.10
578;DHT22;275;48.492;9.214;2023-01-29T10:43:41;6.20;27.00
578;DHT22;275;48.492;9.214;2023-01-29T10:46:20;5.30;27.90
578;DHT22;275;48.492;9.214;2023-01-29T10:48:57;5.10;28.70
578;DHT22;275;48.492;9.214;2023-01-29T10:51:41;5.80;28.20
578;DHT22;275;48.492;9.214;2023-01-29T10:54:26;6.50;26.90
578;DHT22;275;48.492;9.214;2023-01-29T10:57:05;7.30;25.90
578;DHT22;275;48.492;9.214;2023-01-29T10:59:53;7.90;24.50
578;DHT22;275;48.492;9.214;2023-01-29T11:02:22;7.90;24.80
578;DHT22;275;48.492;9.214;2023-01-29T11:04:49;8.30;23.80
578;DHT22;275;48.492;9.214;2023-01-29T11:07:18;7.60;25.10
578;DHT22;275;48.492;9.214;2023-01-29T11:09:52;6.70;25.80
578;DHT22;275;48.492;9.214;2023-01-29T11:12:22;6.50;26.20
578;DHT22;275;48.492;9.214;2023-01-29T11:14:57;6.10;27.20
578;DHT22;275;48.492;9.214;2023-01-29T11:17:25;6.70;26.80
578;DHT22;275;48.492;9.214;2023-01-29T11:19:53;7.40;25.80
578;DHT22;275;48.492;9.214;2023-01-29T11:22:24;7.80;24.90
578;DHT22;275;48.492;9.214;2023-01-29T11:25:09;8.00;24.50
578;DHT22;275;48.492;9.214;2023-01-29T11:27:43;6.40;25.60
578;DHT22;275;48.492;9.214;2023-01-29T11:30:15;5.00;28.00
578;DHT22;275;48.492;9.214;2023-01-29T11:32:49;5.20;29.20
578;DHT22;275;48.492;9.214;2023-01-29T11:35:21;5.20;28.70
578;DHT22;275;48.492;9.214;2023-01-29T11:37:48;6.10;27.40
578;DHT22;275;48.492;9.214;2023-01-29T11:40:37;5.90;27.70
578;DHT22;275;48.492;9.214;2023-01-29T11:43:21;6.70;26.60
578;DHT22;275;48.492;9.214;2023-01-29T11:45:51;6.70;26.30
578;DHT22;275;48.492;9.214;2023-01-29T11:48:20;6.70;26.00
578;DHT22;275;48.492;9.214;2023-01-29T11:50:51;6.70;26.30
578;DHT22;275;48.492;9.214;2023-01-29T11:53:26;6.30;27.40
578;DHT22;275;48.492;9.214;2023-01-29T11:56:00;6.50;26.40
578;DHT22;275;48.492;9.214;2023-01-29T11:58:30;6.00;27.30
578;DHT22;275;48.492;9.214;2023-01-29T12:00:58;6.10;27.10
578;DHT22;275;48.492;9.214;2023-01-29T12:03:32;6.80;26.60
578;DHT22;275;48.492;9.214;2023-01-29T12:06:04;7.60;24.80
578;DHT22;275;48.492;9.214;2023-01-29T12:08:35;7.30;25.30
578;DHT22;275;48.492;9.214;2023-01-29T12:11:12;6.60;26.50
578;DHT22;275;48.492;9.214;2023-01-29T12:13:40;6.50;26.90
578;DHT22;275;48.492;9.214;2023-01-29T12:16:17;6.50;26.90
578;DHT22;275;48.492;9.214;2023-01-29T12:18:50;6.30;26.80
578;DHT22;275;48.492;9.214;2023-01-29T12:21:24;5.90;27.70
578;DHT22;275;48.492;9.214;2023-01-29T12:23:56;5.90;28.00
578;DHT22;275;48.492;9.214;2023-01-29T12:26:29;6.70;26.70
578;DHT22;275;48.492;9.214;2023-01-29T12:29:12;7.00;25.90
578;DHT22;275;48.492;9.214;2023-01-29T12:31:47;7.20;25.80
578;DHT22;275;48.492;9.214;2023-01-29T12:34:19;6.90;26.20
578;DHT22;275;48.492;9.214;2023-01-29T12:37:05;7.10;25.70
578;DHT22;275;48.492;9.214;2023-01-29T12:39:37;6.60;26.50
578;DHT22;275;48.492;9.214;2023-01-29T12:42:11;6.90;26.20
578;DHT22;275;48.492;9.214;2023-01-29T12:44:41;7.20;25.70
578;DHT22;275;48.492;9.214;2023-01-29T12:47:15;6.30;26.30
578;DHT22;275;48.492;9.214;2023-01-29T12:49:49;6.10;27.30
578;DHT22;275;48.492;9.214;2023-01-29T12:52:20;5.10;28.60
578;DHT22;275;48.492;9.214;2023-01-29T12:54:52;5.20;28.80
578;DHT22;275;48.492;9.214;2023-01-29T12:57:31;5.70;28.20
578;DHT22;275;48.492;9.214;2023-01-29T13:00:03;6.60;26.70
578;DHT22;275;48.492;9.214;2023-01-29T13:02:35;7.40;26.10
578;DHT22;275;48.492;9.214;2023-01-29T13:05:16;9.60;23.40
578;DHT22;275;48.492;9.214;2023-01-29T13:07:47;10.10;22.10
578;DHT22;275;48.492;9.214;2023-01-29T13:10:18;9.50;21.80
578;DHT22;275;48.492;9.214;2023-01-29T13:12:54;7.80;24.50
578;DHT22;275;48.492;9.214;2023-01-29T13:15:27;6.80;25.30
578;DHT22;275;48.492;9.214;2023-01-29T13:17:58;6.10;27.00
578;DHT22;275;48.492;9.214;2023-01-29T13:20:29;5.80;28.20
578;DHT22;275;48.492;9.214;2023-01-29T13:23:02;5.60;28.40
578;DHT22;275;48.492;9.214;2023-01-29T13:25:31;5.80;28.60
578;DHT22;275;48.492;9.214;2023-01-29T13:27:59;5.90;28.40
578;DHT22;275;48.492;9.214;2023-01-29T13:30:28;7.00;27.10
578;DHT22;275;48.492;9.214;2023-01-29T13:32:57;7.50;26.30
578;DHT22;275;48.492;9.214;2023-01-29T13:35:34;8.00;25.50
578;DHT22;275;48.492;9.214;2023-01-29T13:38:03;8.50;24.70
578;DHT22;275;48.492;9.214;2023-01-29T13:40:31;8.80;24.30
578;DHT22;275;48.492;9.214;2023-01-29T13:43:01;8.40;24.60
578;DHT22;275;48.492;9.214;2023-01-29T13:45:33;8.80;24.50
578;DHT22;275;48.492;9.214;2023-01-29T13:48:09;8.80;24.10
578;DHT22;275;48.492;9.214;2023-01-29T13:50:38;8.70;24.30
578;DHT22;275;48.492;9.214;2023-01-29T13:53:07;7.60;25.70
578;DHT22;275;48.492;9.214;2023-01-29T13:55:45;6.80;26.60
578;DHT22;275;48.492;9.214;2023-01-29T13:58:15;7.10;26.80
578;DHT22;275;48.492;9.214;2023-01-29T14:00:52;8.30;25.40
578;DHT22;275;48.492;9.214;2023-01-29T14:03:52;8.80;24.10
578;DHT22;275;48.492;9.214;2023-01-29T14:06:39;8.90;23.90
578;DHT22;275;48.492;9.214;2023-01-29T14:09:31;8.40;24.40
578;DHT22;275;48.492;9.214;2023-01-29T14:11:58;8.80;24.70
578;DHT22;275;48.492;9.214;2023-01-29T14:14:58;7.80;24.70
578;DHT22;275;48.492;9.214;2023-01-29T14:17:27;7.10;25.90
578;DHT22;275;48.492;9.214;2023-01-29T14:20:00;6.50;27.00
578;DHT22;275;48.492;9.214;2023-01-29T14:22:29;6.80;26.50
578;DHT22;275;48.492;9.214;2023-01-29T14:25:00;5.60;27.70
578;DHT22;275;48.492;9.214;2023-01-29T14:27:27;5.20;28.70
578;DHT22;275;48.492;9.214;2023-01-29T14:30:00;5.80;28.00
578;DHT22;275;48.492;9.214;2023-01-29T14:32:28;6.40;27.30
578;DHT22;275;48.492;9.214;2023-01-29T14:34:59;6.90;26.00
578;DHT22;275;48.492;9.214;2023-01-29T14:37:31;7.50;25.30
578;DHT22;275;48.492;9.214;2023-01-29T14:40:12;7.30;26.00
578;DHT22;275;48.492;9.214;2023-01-29T14:42:46;7.20;25.90
578;DHT22;275;48.492;9.214;2023-01-29T14:45:25;6.80;26.40
578;DHT22;275;48.492;9.214;2023-01-29T14:48:03;6.60;26.20
578;DHT22;275;48.492;9.214;2023-01-29T14:50:46;6.20;27.10
578;DHT22;275;48.492;9.214;2023-01-29T14:53:39;6.80;26.60
578;DHT22;275;48.492;9.214;2023-01-29T14:56:13;7.00;26.20
578;DHT22;275;48.492;9.214;2023-01-29T14:58:43;6.90;25.90
578;DHT22;275;48.492;9.214;2023-01-29T15:01:18;6.90;26.00
578;DHT22;275;48.492;9.214;2023-01-29T15:03:48;6.70;26.10
578;DHT22;275;48.492;9.214;2023-01-29T15:06:19;5.40;27.70
578;DHT22;275;48.492;9.214;2023-01-29T15:08:54;4.80;28.80
578;DHT22;275;48.492;9.214;2023-01-29T15:11:29;4.60;29.20
578;DHT22;275;48.492;9.214;2023-01-29T15:14:17;4.70;29.30
578;DHT22;275;48.492;9.214;2023-01-29T15:17:15;4.80;29.40
578;DHT22;275;48.492;9.214;2023-01-29T15:19:47;5.40;28.70
578;DHT22;275;48.492;9.214;2023-01-29T15:22:16;5.70;28.10
578;DHT22;275;48.492;9.214;2023-01-29T15:24:44;5.10;29.00
578;DHT22;275;48.492;9.214;2023-01-29T15:27:13;4.70;29.60
578;DHT22;275;48.492;9.214;2023-01-29T15:29:43;4.70;29.50
578;DHT22;275;48.492;9.214;2023-01-29T15:32:18;5.00;28.80
578;DHT22;275;48.492;9.214;2023-01-29T15:34:53;4.80;29.90
578;DHT22;275;48.492;9.214;2023-01-29T15:37:26;5.10;29.30
578;DHT22;275;48.492;9.214;2023-01-29T15:40:19;4.80;29.80
578;DHT22;275;48.492;9.214;2023-01-29T15:42:46;3.90;32.00
578;DHT22;275;48.492;9.214;2023-01-29T15:45:24;4.10;31.90
578;DHT22;275;48.492;9.214;2023-01-29T15:47:59;4.10;32.00
578;DHT22;275;48.492;9.214;2023-01-29T15:50:28;4.40;31.10
578;DHT22;275;48.492;9.214;2023-01-29T15:52:58;4.70;30.50
578;DHT22;275;48.492;9.214;2023-01-29T15:55:26;4.70;30.40
578;DHT22;275;48.492;9.214;2023-01-29T15:57:53;4.30;31.50
578;DHT22;275;48.492;9.214;2023-01-29T16:00:22;4.10;32.20
578;DHT22;275;48.492;9.214;2023-01-29T16:02:50;3.80;32.90
578;DHT22;275;48.492;9.214;2023-01-29T16:05:20;3.90;32.90
578;DHT22;275;48.492;9.214;2023-01-29T16:07:48;3.50;33.50
578;DHT22;275;48.492;9.214;2023-01-29T16:10:18;3.70;33.60
578;DHT22;275;48.492;9.214;2023-01-29T16:12:45;4.20;32.50
578;DHT22;275;48.492;9.214;2023-01-29T16:15:31;4.20;32.30
578;DHT22;275;48.492;9.214;2023-01-29T16:18:00;3.80;34.10
578;DHT22;275;48.492;9.214;2023-01-29T16:20:35;4.10;32.90
578;DHT22;275;48.492;9.214;2023-01-29T16:23:04;4.10;33.00
578;DHT22;275;48.492;9.214;2023-01-29T16:25:32;4.20;32.90
578;DHT22;275;48.492;9.214;2023-01-29T16:30:54;4.50;32.50
578;DHT22;275;48.492;9.214;2023-01-29T16:33:29;4.40;32.70
578;DHT22;275;48.492;9.214;2023-01-29T16:35:59;4.40;32.90
578;DHT22;275;48.492;9.214;2023-01-29T16:38:32;4.70;32.30
578;DHT22;275;48.492;9.214;2023-01-29T16:41:06;4.50;32.20
578;DHT22;275;48.492;9.214;2023-01-29T16:43:48;4.40;32.90
578;DHT22;275;48.492;9.214;2023-01-29T16:46:18;4.40;32.90
578;DHT22;275;48.492;9.214;2023-01-29T16:48:45;4.50;32.50
578;DHT22;275;48.492;9.214;2023-01-29T16:51:21;4.90;31.90
578;DHT22;275;48.492;9.214;2023-01-29T16:53:54;4.90;31.60
578;DHT22;275;48.492;9.214;2023-01-29T16:56:21;4.80;32.00
578;DHT22;275;48.492;9.214;2023-01-29T16:58:49;4.40;33.50
578;DHT22;275;48.492;9.214;2023-01-29T17:01:17;4.10;33.40
578;DHT22;275;48.492;9.214;2023-01-29T17:03:51;4.00;34.00
578;DHT22;275;48.492;9.214;2023-01-29T17:06:24;4.20;33.50
578;DHT22;275;48.492;9.214;2023-01-29T17:08:51;4.70;32.20
578;DHT22;275;48.492;9.214;2023-01-29T17:11:25;4.60;32.30
578;DHT22;275;48.492;9.214;2023-01-29T17:13:54;4.50;32.50
578;DHT22;275;48.492;9.214;2023-01-29T17:16:26;4.30;33.00
578;DHT22;275;48.492;9.214;2023-01-29T17:18:53;4.40;33.20
578;DHT22;275;48.492;9.214;2023-01-29T17:21:21;4.50;32.90
578;DHT22;275;48.492;9.214;2023-01-29T17:23:48;4.50;32.70
578;DHT22;275;48.492;9.214;2023-01-29T17:26:15;4.60;32.70
578;DHT22;275;48.492;9.214;2023-01-29T17:28:43;4.70;32.30